Time;durP1;ratioP1;P1;durP2;ratioP2;P2;SDS_P1;SDS_P2;PMS_P1;PMS_P2;Temp;Humidity;BMP_temperature;BMP_pressure;BME280_temperature;BME280_humidity;BME280_pressure;Samples;Min_cycle;Max_cycle;Signal;HPM_P1;HPM_P2
2023/10/20 00:02:17;;;;;;;;;;;19.70;58.30;;;;;;6318427;28;19919;-64
2023/10/20 00:05:18;;;;;;;;;;;19.70;57.60;;;;;;6318944;28;20003;-64
2023/10/20 00:08:19;;;;;;;;;;;19.70;57.60;;;;;;6318482;28;19923;-64
2023/10/20 00:11:19;;;;;;;;;;;19.70;57.60;;;;;;6318363;28;20290;-64
2023/10/20 00:14:20;;;;;;;;;;;19.70;57.60;;;;;;6318457;28;19920;-64
2023/10/20 00:17:21;;;;;;;;;;;19.70;57.60;;;;;;6318766;28;20385;-65
2023/10/20 00:20:22;;;;;;;;;;;19.70;57.60;;;;;;6318050;28;19919;-65
2023/10/20 00:23:22;;;;;;;;;;;19.70;57.60;;;;;;6318038;28;19911;-64
2023/10/20 00:26:23;;;;;;;;;;;19.70;57.60;;;;;;6318037;28;20010;-64
2023/10/20 00:29:23;;;;;;;;;;;19.70;57.70;;;;;;6318052;28;20007;-64
2023/10/20 00:32:24;;;;;;;;;;;19.70;57.70;;;;;;6316559;28;19912;-65
2023/10/20 00:35:24;;;;;;;;;;;19.70;57.70;;;;;;6318118;28;20481;-65
2023/10/20 00:38:25;;;;;;;;;;;19.70;57.70;;;;;;6317728;28;19919;-64
2023/10/20 00:41:25;;;;;;;;;;;19.70;57.70;;;;;;6317996;28;19916;-64
2023/10/20 00:44:26;;;;;;;;;;;19.70;57.80;;;;;;6317864;28;20022;-64
2023/10/20 00:47:27;;;;;;;;;;;19.70;57.70;;;;;;6317622;28;19967;-64
2023/10/20 00:50:28;;;;;;;;;;;19.70;57.70;;;;;;6316958;28;19951;-65
2023/10/20 00:53:29;;;;;;;;;;;19.70;57.70;;;;;;6317560;28;19923;-63
2023/10/20 00:56:29;;;;;;;;;;;19.70;57.70;;;;;;6317570;28;19912;-64
2023/10/20 00:59:30;;;;;;;;;;;19.70;57.70;;;;;;6316382;28;20290;-64
2023/10/20 01:02:32;;;;;;;;;;;19.70;57.70;;;;;;6317177;28;19912;-64
2023/10/20 01:05:33;;;;;;;;;;;19.70;57.80;;;;;;6317685;28;19915;-64
2023/10/20 01:08:33;;;;;;;;;;;19.70;57.70;;;;;;6316845;28;19916;-65
2023/10/20 01:11:34;;;;;;;;;;;19.70;57.70;;;;;;6317930;28;19960;-65
2023/10/20 01:14:35;;;;;;;;;;;19.70;57.70;;;;;;6317413;28;19908;-64
2023/10/20 01:17:36;;;;;;;;;;;19.70;57.80;;;;;;6317393;28;20420;-64
2023/10/20 01:20:37;;;;;;;;;;;19.70;57.70;;;;;;6317213;28;19950;-64
2023/10/20 01:23:38;;;;;;;;;;;19.70;57.70;;;;;;6317105;28;19908;-64
2023/10/20 01:26:39;;;;;;;;;;;19.70;57.80;;;;;;6317374;28;19939;-64
2023/10/20 01:29:39;;;;;;;;;;;19.70;57.70;;;;;;6316965;28;19958;-65
2023/10/20 01:32:40;;;;;;;;;;;19.70;57.70;;;;;;6316155;28;19912;-65
2023/10/20 01:35:41;;;;;;;;;;;19.70;57.80;;;;;;6313476;28;19908;-64
2023/10/20 01:38:42;;;;;;;;;;;19.70;57.80;;;;;;6312714;28;19947;-64
2023/10/20 01:41:42;;;;;;;;;;;19.70;57.80;;;;;;6317241;28;19948;-64
2023/10/20 01:44:43;;;;;;;;;;;19.70;57.80;;;;;;6316643;28;20367;-64
2023/10/20 01:47:43;;;;;;;;;;;19.70;57.80;;;;;;6316474;28;19915;-64
2023/10/20 01:50:44;;;;;;;;;;;19.70;57.80;;;;;;6315510;28;19908;-65
2023/10/20 01:53:45;;;;;;;;;;;19.70;57.80;;;;;;6316822;28;19916;-64
2023/10/20 01:56:45;;;;;;;;;;;19.70;57.80;;;;;;6316870;28;19919;-64
2023/10/20 01:59:46;;;;;;;;;;;19.70;57.70;;;;;;6316506;28;19915;-64
2023/10/20 02:02:46;;;;;;;;;;;19.70;57.70;;;;;;6318533;28;19912;-64
2023/10/20 02:05:47;;;;;;;;;;;19.70;57.70;;;;;;6321189;28;19966;-65
2023/10/20 02:08:47;;;;;;;;;;;19.70;57.80;;;;;;6321306;28;19957;-65
2023/10/20 02:11:48;;;;;;;;;;;19.70;57.80;;;;;;6320978;28;19940;-65
2023/10/20 02:14:48;;;;;;;;;;;19.70;57.80;;;;;;6321560;28;19915;-64
2023/10/20 02:17:49;;;;;;;;;;;19.70;57.80;;;;;;6320997;28;19909;-64
2023/10/20 02:21:03;;;;;;;;;;;19.70;57.80;;;;;;6320976;28;20336;-64
2023/10/20 02:24:04;;;;;;;;;;;19.70;58.50;;;;;;6321088;28;19915;-64
2023/10/20 02:27:05;;;;;;;;;;;19.70;57.90;;;;;;6320901;28;19988;-65
2023/10/20 02:30:06;;;;;;;;;;;19.70;57.80;;;;;;6320401;28;19908;-64
2023/10/20 02:33:07;;;;;;;;;;;19.70;57.70;;;;;;6321497;28;19999;-64
2023/10/20 02:36:07;;;;;;;;;;;19.70;57.80;;;;;;6320619;28;20309;-64
2023/10/20 02:39:08;;;;;;;;;;;19.70;57.90;;;;;;6320605;28;19967;-64
2023/10/20 02:42:08;;;;;;;;;;;19.70;57.80;;;;;;6320435;28;19957;-64
2023/10/20 02:45:10;;;;;;;;;;;19.70;57.80;;;;;;6320644;28;19941;-64
2023/10/20 02:48:11;;;;;;;;;;;19.70;57.70;;;;;;6320395;28;20382;-65
2023/10/20 02:51:13;;;;;;;;;;;19.70;57.80;;;;;;6318931;28;19912;-64
2023/10/20 02:54:13;;;;;;;;;;;19.70;57.80;;;;;;6320642;28;19916;-64
2023/10/20 02:57:14;;;;;;;;;;;19.70;57.80;;;;;;6320239;28;19908;-64
2023/10/20 03:00:18;;;;;;;;;;;19.70;57.90;;;;;;6320104;28;19950;-64
2023/10/20 03:03:18;;;;;;;;;;;19.70;57.80;;;;;;6317235;28;19912;-64
2023/10/20 03:06:19;;;;;;;;;;;19.70;57.90;;;;;;6320042;28;19965;-65
2023/10/20 03:09:19;;;;;;;;;;;19.70;57.90;;;;;;6319732;28;20362;-63
2023/10/20 03:12:20;;;;;;;;;;;19.70;57.80;;;;;;6319958;28;20542;-64
2023/10/20 03:15:21;;;;;;;;;;;19.70;57.80;;;;;;6319147;28;20435;-64
2023/10/20 03:18:22;;;;;;;;;;;19.70;57.90;;;;;;6319379;28;19964;-64
2023/10/20 03:21:23;;;;;;;;;;;19.70;57.80;;;;;;6319551;28;19912;-64
2023/10/20 03:24:24;;;;;;;;;;;19.70;57.80;;;;;;6319507;28;20290;-64
2023/10/20 03:27:24;;;;;;;;;;;19.70;57.80;;;;;;6319525;28;20392;-64
2023/10/20 03:30:25;;;;;;;;;;;19.70;57.90;;;;;;6319359;28;19939;-64
2023/10/20 03:33:25;;;;;;;;;;;19.70;57.80;;;;;;6317973;28;19938;-64
2023/10/20 03:36:27;;;;;;;;;;;19.70;57.70;;;;;;6318215;28;19915;-64
2023/10/20 03:39:27;;;;;;;;;;;19.60;57.70;;;;;;6318976;28;19928;-64
2023/10/20 03:42:28;;;;;;;;;;;19.60;57.70;;;;;;6319205;28;19912;-64
2023/10/20 03:45:28;;;;;;;;;;;19.70;57.90;;;;;;6319203;28;19908;-65
2023/10/20 03:48:29;;;;;;;;;;;19.70;57.80;;;;;;6312185;28;19912;-65
2023/10/20 03:51:30;;;;;;;;;;;19.70;57.80;;;;;;6318467;28;19908;-64
2023/10/20 03:54:30;;;;;;;;;;;19.70;57.80;;;;;;6316952;28;19912;-64
2023/10/20 03:57:31;;;;;;;;;;;19.70;57.80;;;;;;6318451;28;20426;-64
2023/10/20 04:00:41;;;;;;;;;;;19.70;57.80;;;;;;6317344;28;19908;-64
2023/10/20 04:03:49;;;;;;;;;;;19.70;57.90;;;;;;6318337;28;19912;-64
2023/10/20 04:06:49;;;;;;;;;;;19.60;57.70;;;;;;6318863;28;19912;-65
2023/10/20 04:09:50;;;;;;;;;;;19.70;57.80;;;;;;6317823;28;20289;-65
2023/10/20 04:12:52;;;;;;;;;;;19.70;57.80;;;;;;6318268;28;19909;-64
2023/10/20 04:15:55;;;;;;;;;;;19.70;57.80;;;;;;6318481;28;19908;-64
2023/10/20 04:18:56;;;;;;;;;;;19.70;57.80;;;;;;6318364;28;19908;-64
2023/10/20 04:21:58;;;;;;;;;;;19.60;57.70;;;;;;6318310;28;20340;-64
2023/10/20 04:24:58;;;;;;;;;;;19.60;57.80;;;;;;6318022;28;19908;-64
2023/10/20 04:51:13;;;;;;;;;;;19.60;57.70;;;;;;6318021;28;20422;-64
2023/10/20 04:54:23;;;;;;;;;;;19.70;57.70;;;;;;6317303;28;20399;-64
2023/10/20 05:03:34;;;;;;;;;;;19.60;57.70;;;;;;6316229;28;19995;-64
2023/10/20 05:06:43;;;;;;;;;;;19.70;57.80;;;;;;6317105;28;19924;-65
2023/10/20 05:09:44;;;;;;;;;;;19.60;57.60;;;;;;6316685;28;20386;-64
2023/10/20 05:12:45;;;;;;;;;;;19.60;57.60;;;;;;6317322;28;20375;-64
2023/10/20 05:15:47;;;;;;;;;;;19.70;57.80;;;;;;6315698;28;19961;-64
2023/10/20 05:18:48;;;;;;;;;;;19.70;57.70;;;;;;6317532;28;19969;-64
2023/10/20 05:21:49;;;;;;;;;;;19.70;57.60;;;;;;6317184;28;20354;-65
2023/10/20 05:24:51;;;;;;;;;;;19.70;57.70;;;;;;6316045;28;19920;-65
2023/10/20 05:27:51;;;;;;;;;;;19.70;57.70;;;;;;6317238;28;20390;-64
2023/10/20 05:30:53;;;;;;;;;;;19.70;57.80;;;;;;6317122;28;19908;-64
2023/10/20 05:33:54;;;;;;;;;;;19.70;57.80;;;;;;6317340;28;20385;-65
2023/10/20 05:36:55;;;;;;;;;;;19.70;57.90;;;;;;6317582;28;19999;-65
2023/10/20 05:39:55;;;;;;;;;;;19.70;57.80;;;;;;6321917;28;19944;-65
2023/10/20 05:42:56;;;;;;;;;;;19.70;57.80;;;;;;6322003;28;20308;-65
2023/10/20 05:45:57;;;;;;;;;;;19.70;57.90;;;;;;6321939;28;20003;-65
2023/10/20 05:48:57;;;;;;;;;;;19.70;58.50;;;;;;6321848;28;19916;-64
2023/10/20 05:51:58;;;;;;;;;;;19.70;57.90;;;;;;6321819;28;19912;-65
2023/10/20 05:54:59;;;;;;;;;;;19.70;57.90;;;;;;6321934;28;19908;-64
2023/10/20 05:58:00;;;;;;;;;;;19.70;57.80;;;;;;6322055;28;19923;-65
2023/10/20 06:01:09;;;;;;;;;;;19.70;57.90;;;;;;6314568;28;19912;-65
2023/10/20 06:04:10;;;;;;;;;;;19.70;57.90;;;;;;6324653;28;19912;-65
2023/10/20 06:07:11;;;;;;;;;;;19.70;57.90;;;;;;6319459;28;20007;-64
2023/10/20 06:10:11;;;;;;;;;;;19.70;57.90;;;;;;6299866;28;19932;-71
2023/10/20 06:13:13;;;;;;;;;;;19.70;58.50;;;;;;6316778;28;19908;-64
2023/10/20 06:16:14;;;;;;;;;;;19.70;57.90;;;;;;6321197;28;19912;-64
2023/10/20 06:19:15;;;;;;;;;;;19.70;57.90;;;;;;6327223;28;19916;-64
2023/10/20 06:22:16;;;;;;;;;;;19.70;57.90;;;;;;6322549;28;20330;-64
2023/10/20 06:25:16;;;;;;;;;;;19.70;57.90;;;;;;6320180;28;19920;-65
2023/10/20 06:28:17;;;;;;;;;;;19.70;57.90;;;;;;6319669;28;20014;-65
2023/10/20 06:31:28;;;;;;;;;;;19.70;58.00;;;;;;6321732;28;20061;-63
2023/10/20 06:34:31;;;;;;;;;;;19.70;57.80;;;;;;6320420;28;19908;-64
2023/10/20 06:37:37;;;;;;;;;;;19.70;57.90;;;;;;6321607;28;19908;-62
2023/10/20 06:40:39;;;;;;;;;;;19.70;57.90;;;;;;6321411;28;19924;-64
2023/10/20 06:43:40;;;;;;;;;;;19.70;58.00;;;;;;6318625;28;19916;-63
2023/10/20 06:46:41;;;;;;;;;;;19.70;58.00;;;;;;6325864;28;19923;-64
2023/10/20 06:49:42;;;;;;;;;;;19.60;57.80;;;;;;6319122;28;19912;-65
2023/10/20 06:52:43;;;;;;;;;;;19.60;56.00;;;;;;6324117;28;19969;-65
2023/10/20 06:55:44;;;;;;;;;;;19.60;56.40;;;;;;6313019;28;20382;-65
2023/10/20 06:58:44;;;;;;;;;;;19.70;56.90;;;;;;6320525;28;20049;-65
2023/10/20 07:01:45;;;;;;;;;;;19.80;56.80;;;;;;6311948;28;19985;-64
2023/10/20 07:04:46;;;;;;;;;;;19.80;56.60;;;;;;6320543;28;20286;-65
2023/10/20 07:07:48;;;;;;;;;;;19.90;57.00;;;;;;6321344;28;20016;-65
2023/10/20 07:10:50;;;;;;;;;;;19.90;57.40;;;;;;6326205;28;19983;-65
2023/10/20 07:13:51;;;;;;;;;;;19.90;57.20;;;;;;6326000;28;20373;-65
2023/10/20 07:16:52;;;;;;;;;;;19.90;57.40;;;;;;6315717;28;19908;-64
2023/10/20 07:19:53;;;;;;;;;;;19.90;57.40;;;;;;6320738;28;19951;-65
2023/10/20 07:22:54;;;;;;;;;;;19.90;57.40;;;;;;6325238;28;19950;-65
2023/10/20 07:25:54;;;;;;;;;;;20.00;57.40;;;;;;6320495;28;20491;-65
2023/10/20 07:28:55;;;;;;;;;;;20.00;57.10;;;;;;6320444;28;19919;-65
2023/10/20 07:31:56;;;;;;;;;;;20.00;57.20;;;;;;6327264;28;19980;-64
2023/10/20 07:34:57;;;;;;;;;;;20.00;57.10;;;;;;6324853;28;19912;-64
2023/10/20 07:37:57;;;;;;;;;;;20.00;57.30;;;;;;6322723;28;19978;-64
2023/10/20 07:41:08;;;;;;;;;;;19.90;57.30;;;;;;6322774;28;19959;-64
2023/10/20 07:44:10;;;;;;;;;;;19.90;57.30;;;;;;6320003;28;20001;-64
2023/10/20 07:47:11;;;;;;;;;;;19.80;57.40;;;;;;6301980;28;19916;-64
2023/10/20 07:50:12;;;;;;;;;;;19.80;57.50;;;;;;6307208;28;19916;-64
2023/10/20 07:53:12;;;;;;;;;;;19.80;57.50;;;;;;6297211;28;19908;-64
2023/10/20 07:56:13;;;;;;;;;;;19.80;57.40;;;;;;6303007;28;19908;-64
2023/10/20 07:59:14;;;;;;;;;;;19.80;57.50;;;;;;6301524;28;19916;-64
2023/10/20 08:02:15;;;;;;;;;;;19.80;57.40;;;;;;6296909;28;19908;-65
2023/10/20 08:05:16;;;;;;;;;;;19.80;57.50;;;;;;6302138;28;20324;-64
2023/10/20 08:08:17;;;;;;;;;;;19.80;57.60;;;;;;6302074;28;19918;-64
2023/10/20 08:11:17;;;;;;;;;;;19.80;57.70;;;;;;6298019;28;20000;-66
2023/10/20 08:14:20;;;;;;;;;;;19.80;57.70;;;;;;6285098;28;19912;-66
2023/10/20 08:17:21;;;;;;;;;;;19.80;57.60;;;;;;6306322;28;19908;-67
2023/10/20 08:20:22;;;;;;;;;;;19.80;57.70;;;;;;6328169;28;19908;-68
2023/10/20 08:23:23;;;;;;;;;;;19.80;57.70;;;;;;6320205;28;20358;-68
2023/10/20 08:26:24;;;;;;;;;;;19.80;57.70;;;;;;6319181;28;19994;-68
2023/10/20 08:29:24;;;;;;;;;;;19.80;57.70;;;;;;6322893;28;20274;-67
2023/10/20 08:32:25;;;;;;;;;;;19.80;57.60;;;;;;6328880;28;19908;-67
2023/10/20 08:35:26;;;;;;;;;;;19.80;57.90;;;;;;6319994;28;19908;-67
2023/10/20 08:38:26;;;;;;;;;;;19.80;58.40;;;;;;6319006;28;19912;-67
2023/10/20 08:41:27;;;;;;;;;;;19.80;57.60;;;;;;6319375;28;19912;-67
2023/10/20 08:44:30;;;;;;;;;;;19.80;57.80;;;;;;6317681;28;19912;-67
2023/10/20 08:47:30;;;;;;;;;;;19.80;58.00;;;;;;6316647;28;20001;-67
2023/10/20 08:50:31;;;;;;;;;;;19.80;58.00;;;;;;6317255;28;19912;-67
2023/10/20 08:53:34;;;;;;;;;;;19.80;58.10;;;;;;6319050;28;20424;-67
2023/10/20 08:56:35;;;;;;;;;;;19.80;58.20;;;;;;6319012;28;19919;-67
2023/10/20 08:59:36;;;;;;;;;;;19.80;58.30;;;;;;6318943;28;20375;-67
2023/10/20 09:02:39;;;;;;;;;;;19.80;58.30;;;;;;6330278;28;19914;-67
2023/10/20 09:05:40;;;;;;;;;;;19.80;58.40;;;;;;6317563;28;19999;-68
2023/10/20 09:08:41;;;;;;;;;;;19.80;58.40;;;;;;6318362;28;20490;-68
2023/10/20 09:11:42;;;;;;;;;;;19.70;58.40;;;;;;6311360;28;19939;-68
2023/10/20 09:14:43;;;;;;;;;;;19.70;58.00;;;;;;6317825;28;19908;-68
2023/10/20 09:17:51;;;;;;;;;;;19.60;56.80;;;;;;6324766;28;20334;-68
2023/10/20 09:20:52;;;;;;;;;;;19.60;55.80;;;;;;6318608;28;19981;-67
2023/10/20 09:23:57;;;;;;;;;;;19.60;53.90;;;;;;6317686;28;20416;-67
2023/10/20 09:26:58;;;;;;;;;;;19.60;54.00;;;;;;6320066;28;19978;-67
2023/10/20 09:29:59;;;;;;;;;;;19.50;53.40;;;;;;6329935;28;19916;-67
2023/10/20 09:33:00;;;;;;;;;;;19.50;52.40;;;;;;6321426;28;19912;-67
2023/10/20 09:36:01;;;;;;;;;;;19.50;51.90;;;;;;6319285;28;19915;-63
2023/10/20 09:39:03;;;;;;;;;;;19.40;51.50;;;;;;6320666;28;19924;-63
2023/10/20 09:42:05;;;;;;;;;;;19.40;51.30;;;;;;6320822;28;19915;-62
2023/10/20 09:45:09;;;;;;;;;;;19.40;51.10;;;;;;6320456;28;20010;-63
2023/10/20 09:48:19;;;;;;;;;;;19.40;51.90;;;;;;6319152;28;19912;-62
2023/10/20 09:51:21;;;;;;;;;;;19.40;51.70;;;;;;6320766;28;19908;-62
2023/10/20 09:54:32;;;;;;;;;;;19.50;52.70;;;;;;6320558;28;19995;-63
2023/10/20 09:57:33;;;;;;;;;;;19.50;52.20;;;;;;6320570;28;19998;-63
2023/10/20 10:00:34;;;;;;;;;;;19.50;52.70;;;;;;6320648;28;19908;-63
2023/10/20 10:03:39;;;;;;;;;;;19.50;53.00;;;;;;6320502;28;20256;-62
2023/10/20 10:06:44;;;;;;;;;;;19.50;53.40;;;;;;6320649;28;20053;-62
2023/10/20 10:09:52;;;;;;;;;;;19.50;53.50;;;;;;6320725;28;19915;-62
2023/10/20 10:12:57;;;;;;;;;;;19.50;53.60;;;;;;6320504;28;19908;-63
2023/10/20 10:16:08;;;;;;;;;;;19.50;53.90;;;;;;6320369;28;19912;-63
2023/10/20 10:19:09;;;;;;;;;;;19.50;54.10;;;;;;6320531;28;19942;-63
2023/10/20 10:22:15;;;;;;;;;;;19.50;54.30;;;;;;6320292;28;20389;-63
2023/10/20 10:25:16;;;;;;;;;;;19.50;54.30;;;;;;6323925;28;19915;-63
2023/10/20 10:28:18;;;;;;;;;;;19.60;54.30;;;;;;6323472;28;19912;-62
2023/10/20 10:31:19;;;;;;;;;;;19.50;54.50;;;;;;6324501;28;20020;-63
2023/10/20 10:34:19;;;;;;;;;;;19.50;54.50;;;;;;6324624;28;19908;-63
2023/10/20 10:37:37;;;;;;;;;;;19.60;54.70;;;;;;6346914;28;19914;-63
2023/10/20 10:40:43;;;;;;;;;;;19.60;54.80;;;;;;6332811;28;19924;-62
2023/10/20 10:43:44;;;;;;;;;;;19.50;54.90;;;;;;6324344;28;20553;-63
2023/10/20 10:46:47;;;;;;;;;;;19.50;54.70;;;;;;6324186;28;19919;-62
2023/10/20 10:49:48;;;;;;;;;;;19.60;55.10;;;;;;6324351;28;19912;-63
2023/10/20 10:52:48;;;;;;;;;;;19.50;54.90;;;;;;6324096;28;19908;-63
2023/10/20 10:55:49;;;;;;;;;;;19.50;55.10;;;;;;6324077;28;19908;-63
2023/10/20 10:58:50;;;;;;;;;;;19.60;55.20;;;;;;6321147;28;19908;-63
2023/10/20 11:01:50;;;;;;;;;;;19.50;55.20;;;;;;6323763;28;19908;-63
2023/10/20 11:04:51;;;;;;;;;;;19.60;55.40;;;;;;6323597;28;19909;-63
2023/10/20 11:08:05;;;;;;;;;;;19.60;55.50;;;;;;6323720;28;19912;-63
2023/10/20 11:11:09;;;;;;;;;;;19.50;55.40;;;;;;6323484;28;19908;-62
2023/10/20 11:14:10;;;;;;;;;;;19.60;55.60;;;;;;6323642;28;20322;-62
2023/10/20 11:17:11;;;;;;;;;;;19.50;55.50;;;;;;6323889;28;19916;-63
2023/10/20 11:20:13;;;;;;;;;;;19.60;55.60;;;;;;6328218;28;19908;-63
2023/10/20 11:23:14;;;;;;;;;;;19.60;55.70;;;;;;6326527;28;19918;-63
2023/10/20 11:26:17;;;;;;;;;;;19.60;55.70;;;;;;6323225;28;20344;-62
2023/10/20 11:29:18;;;;;;;;;;;19.60;55.80;;;;;;6322935;28;19922;-61
2023/10/20 11:32:19;;;;;;;;;;;19.60;55.80;;;;;;6322998;28;20005;-62
2023/10/20 11:35:26;;;;;;;;;;;19.60;55.80;;;;;;6322508;28;19908;-62
2023/10/20 11:38:27;;;;;;;;;;;19.60;55.80;;;;;;6322388;28;19912;-63
2023/10/20 11:41:28;;;;;;;;;;;19.60;55.90;;;;;;6322359;28;19977;-63
2023/10/20 11:44:29;;;;;;;;;;;19.60;55.90;;;;;;6322595;28;19915;-62
2023/10/20 11:47:29;;;;;;;;;;;19.60;56.00;;;;;;6322894;28;20416;-63
2023/10/20 11:50:32;;;;;;;;;;;19.60;56.00;;;;;;6322105;28;20241;-63
2023/10/20 11:53:33;;;;;;;;;;;19.60;56.00;;;;;;6322544;28;20256;-63
2023/10/20 11:56:33;;;;;;;;;;;19.60;56.00;;;;;;6320322;28;20362;-64
2023/10/20 11:59:35;;;;;;;;;;;19.60;56.00;;;;;;6321516;28;19912;-62
2023/10/20 12:02:36;;;;;;;;;;;19.60;56.10;;;;;;6319779;28;19912;-63
2023/10/20 12:05:37;;;;;;;;;;;19.60;56.10;;;;;;6324830;28;19956;-65
2023/10/20 12:08:37;;;;;;;;;;;19.60;56.20;;;;;;6315081;28;19964;-71
2023/10/20 12:11:38;;;;;;;;;;;19.60;56.20;;;;;;6311301;28;19943;-70
2023/10/20 12:14:38;;;;;;;;;;;19.60;56.10;;;;;;6318952;28;19908;-65
2023/10/20 12:17:41;;;;;;;;;;;19.60;56.20;;;;;;6312648;28;19912;-63
2023/10/20 12:20:41;;;;;;;;;;;19.60;56.20;;;;;;6324813;28;19916;-65
2023/10/20 12:23:42;;;;;;;;;;;19.60;56.20;;;;;;6318003;28;20468;-65
2023/10/20 12:26:42;;;;;;;;;;;19.60;56.20;;;;;;6318193;28;19916;-65
2023/10/20 12:29:43;;;;;;;;;;;19.60;56.20;;;;;;6302144;28;19919;-65
2023/10/20 12:32:44;;;;;;;;;;;19.60;56.20;;;;;;6317642;28;19919;-65
2023/10/20 12:35:45;;;;;;;;;;;19.60;56.20;;;;;;6315619;28;19915;-65
2023/10/20 12:38:46;;;;;;;;;;;19.60;56.20;;;;;;6317157;28;19926;-64
2023/10/20 12:41:47;;;;;;;;;;;19.60;56.30;;;;;;6317271;28;19916;-65
2023/10/20 12:44:47;;;;;;;;;;;19.60;56.30;;;;;;6316793;28;19912;-64
2023/10/20 12:47:48;;;;;;;;;;;19.60;56.30;;;;;;6322841;28;19920;-65
2023/10/20 12:50:49;;;;;;;;;;;19.60;56.40;;;;;;6317314;28;19912;-65
2023/10/20 12:53:50;;;;;;;;;;;19.60;56.40;;;;;;6309334;28;19908;-65
2023/10/20 12:56:51;;;;;;;;;;;19.60;56.70;;;;;;6317738;28;19935;-65
2023/10/20 12:59:52;;;;;;;;;;;19.60;56.40;;;;;;6317775;28;19912;-65
2023/10/20 13:02:53;;;;;;;;;;;19.60;56.30;;;;;;6317647;28;19919;-65
2023/10/20 13:05:54;;;;;;;;;;;19.60;56.40;;;;;;6315998;28;19947;-65
2023/10/20 13:08:55;;;;;;;;;;;19.60;56.40;;;;;;6317967;28;19920;-65
2023/10/20 13:11:57;;;;;;;;;;;19.60;56.50;;;;;;6317815;28;19919;-64
2023/10/20 13:14:57;;;;;;;;;;;19.60;56.50;;;;;;6320410;28;19919;-64
2023/10/20 13:17:58;;;;;;;;;;;19.60;56.60;;;;;;6317676;28;20141;-65
2023/10/20 13:21:03;;;;;;;;;;;19.60;56.50;;;;;;6317000;28;19918;-66
2023/10/20 13:24:04;;;;;;;;;;;19.60;56.50;;;;;;6316917;28;19909;-66
2023/10/20 13:27:04;;;;;;;;;;;19.60;56.60;;;;;;6320468;28;19920;-66
2023/10/20 13:30:07;;;;;;;;;;;19.60;56.60;;;;;;6317546;28;19989;-66
2023/10/20 13:33:07;;;;;;;;;;;19.60;56.60;;;;;;6313379;28;19916;-66
2023/10/20 13:36:08;;;;;;;;;;;19.60;56.60;;;;;;6322733;28;20356;-66
2023/10/20 13:39:09;;;;;;;;;;;19.60;56.60;;;;;;6316838;28;19920;-65
2023/10/20 13:42:10;;;;;;;;;;;19.60;56.60;;;;;;6316207;28;20009;-66
2023/10/20 13:45:10;;;;;;;;;;;19.60;56.70;;;;;;6317234;28;20294;-66
2023/10/20 13:48:11;;;;;;;;;;;19.60;56.70;;;;;;6316997;28;20015;-66
2023/10/20 13:51:12;;;;;;;;;;;19.60;56.60;;;;;;6316425;28;20406;-66
2023/10/20 13:54:12;;;;;;;;;;;19.60;56.60;;;;;;6316256;28;19934;-66
2023/10/20 13:57:13;;;;;;;;;;;19.60;56.60;;;;;;6322921;28;19998;-66
2023/10/20 14:00:14;;;;;;;;;;;19.60;56.70;;;;;;6320777;28;19909;-65
2023/10/20 14:03:14;;;;;;;;;;;19.60;56.80;;;;;;6321582;28;19908;-66
2023/10/20 14:06:16;;;;;;;;;;;19.60;56.70;;;;;;6319739;28;19919;-66
2023/10/20 14:09:17;;;;;;;;;;;19.60;56.80;;;;;;6321504;28;19983;-65
2023/10/20 14:12:17;;;;;;;;;;;19.60;56.90;;;;;;6320471;28;20355;-66
2023/10/20 14:15:19;;;;;;;;;;;19.60;56.80;;;;;;6321062;28;20039;-66
2023/10/20 14:18:19;;;;;;;;;;;19.60;56.80;;;;;;6320865;28;19908;-66
2023/10/20 14:21:20;;;;;;;;;;;19.60;56.80;;;;;;6323257;28;19959;-66
2023/10/20 14:24:21;;;;;;;;;;;19.60;56.80;;;;;;6319449;28;19912;-66
2023/10/20 14:27:22;;;;;;;;;;;19.60;56.80;;;;;;6318625;28;19912;-66
2023/10/20 14:30:22;;;;;;;;;;;19.60;56.80;;;;;;6319647;28;20500;-66
2023/10/20 14:33:23;;;;;;;;;;;19.60;56.90;;;;;;6329937;28;20418;-66
2023/10/20 14:36:24;;;;;;;;;;;19.60;56.90;;;;;;6320765;28;19915;-66
2023/10/20 14:39:24;;;;;;;;;;;19.60;56.90;;;;;;6319900;28;20041;-66
2023/10/20 14:42:25;;;;;;;;;;;19.60;56.80;;;;;;6320145;28;19923;-66
2023/10/20 14:45:26;;;;;;;;;;;19.60;56.90;;;;;;6326315;28;19912;-66
2023/10/20 14:48:26;;;;;;;;;;;19.60;56.90;;;;;;6326565;28;20363;-66
2023/10/20 14:51:28;;;;;;;;;;;19.60;57.00;;;;;;6330245;28;19997;-67
2023/10/20 14:54:32;;;;;;;;;;;19.60;56.90;;;;;;6319873;28;19912;-66
2023/10/20 14:57:33;;;;;;;;;;;19.60;57.00;;;;;;6326481;28;20294;-66
2023/10/20 15:00:35;;;;;;;;;;;19.60;56.90;;;;;;6320167;28;19919;-66
2023/10/20 15:03:36;;;;;;;;;;;19.60;56.90;;;;;;6324333;28;19964;-67
2023/10/20 15:06:37;;;;;;;;;;;19.60;57.00;;;;;;6331757;28;20348;-66
2023/10/20 15:09:37;;;;;;;;;;;19.60;57.00;;;;;;6325150;28;19912;-67
2023/10/20 15:12:40;;;;;;;;;;;19.60;57.00;;;;;;6318893;28;19923;-66
2023/10/20 15:15:41;;;;;;;;;;;19.60;57.00;;;;;;6313864;28;19908;-67
2023/10/20 15:18:45;;;;;;;;;;;19.70;57.10;;;;;;6312475;28;19916;-67
2023/10/20 15:21:47;;;;;;;;;;;19.70;57.00;;;;;;6319613;28;19912;-67
2023/10/20 15:24:48;;;;;;;;;;;19.60;56.90;;;;;;6317779;28;19939;-66
2023/10/20 15:27:49;;;;;;;;;;;19.60;56.90;;;;;;6323634;28;19912;-67
2023/10/20 15:30:50;;;;;;;;;;;19.60;56.90;;;;;;6320034;28;19909;-66
2023/10/20 15:33:50;;;;;;;;;;;19.60;57.00;;;;;;6318892;28;19939;-67
2023/10/20 15:36:51;;;;;;;;;;;19.70;57.00;;;;;;6319426;28;19908;-66
2023/10/20 15:39:51;;;;;;;;;;;19.60;57.00;;;;;;6324953;28;19924;-66
2023/10/20 15:42:53;;;;;;;;;;;19.60;57.10;;;;;;6324633;28;20423;-67
2023/10/20 15:45:54;;;;;;;;;;;19.60;57.00;;;;;;6319067;28;19943;-67
2023/10/20 15:48:55;;;;;;;;;;;19.70;57.00;;;;;;6325753;28;19979;-67
2023/10/20 15:51:55;;;;;;;;;;;19.70;57.00;;;;;;6318835;28;19925;-66
2023/10/20 15:54:56;;;;;;;;;;;19.60;56.90;;;;;;6325466;28;20392;-66
2023/10/20 15:57:57;;;;;;;;;;;19.60;56.90;;;;;;6318914;28;19908;-67
2023/10/20 16:01:03;;;;;;;;;;;19.60;56.90;;;;;;6319122;28;19935;-66
2023/10/20 16:04:04;;;;;;;;;;;19.60;57.10;;;;;;6320242;28;19919;-66
2023/10/20 16:07:05;;;;;;;;;;;19.60;56.80;;;;;;6326456;28;19951;-66
2023/10/20 16:10:06;;;;;;;;;;;19.60;56.90;;;;;;6316659;28;19937;-66
2023/10/20 16:13:07;;;;;;;;;;;19.60;56.80;;;;;;6318141;28;20358;-67
2023/10/20 16:16:08;;;;;;;;;;;19.60;57.00;;;;;;6316276;28;19916;-66
2023/10/20 16:19:10;;;;;;;;;;;19.70;57.10;;;;;;6317751;28;20014;-69
2023/10/20 16:22:12;;;;;;;;;;;19.60;57.00;;;;;;6316815;28;20004;-66
2023/10/20 16:25:13;;;;;;;;;;;19.60;57.10;;;;;;6316700;28;19908;-66
2023/10/20 16:28:14;;;;;;;;;;;19.60;57.00;;;;;;6313997;28;19913;-67
2023/10/20 16:31:15;;;;;;;;;;;19.60;57.00;;;;;;6316841;28;19908;-67
2023/10/20 16:34:18;;;;;;;;;;;19.60;57.10;;;;;;6309093;28;19938;-67
2023/10/20 16:37:19;;;;;;;;;;;19.60;57.20;;;;;;6316098;28;19914;-67
2023/10/20 16:40:20;;;;;;;;;;;19.60;57.20;;;;;;6321665;28;19974;-66
2023/10/20 16:43:21;;;;;;;;;;;19.60;57.20;;;;;;6315696;28;19908;-67
2023/10/20 16:46:22;;;;;;;;;;;19.60;57.20;;;;;;6315387;28;19912;-66
2023/10/20 16:49:22;;;;;;;;;;;19.60;57.10;;;;;;6319285;28;19915;-66
2023/10/20 16:52:23;;;;;;;;;;;19.60;57.10;;;;;;6315147;28;20613;-67
2023/10/20 16:55:24;;;;;;;;;;;19.70;57.30;;;;;;6314823;28;19908;-66
2023/10/20 16:58:28;;;;;;;;;;;19.60;57.30;;;;;;6325478;28;19915;-67
2023/10/20 17:01:31;;;;;;;;;;;19.60;57.20;;;;;;6310504;28;19934;-67
2023/10/20 17:04:33;;;;;;;;;;;19.70;57.30;;;;;;6316908;28;20002;-67
2023/10/20 17:07:33;;;;;;;;;;;19.60;57.30;;;;;;6315128;28;19916;-67
2023/10/20 17:10:38;;;;;;;;;;;19.60;57.20;;;;;;6315354;28;20382;-67
2023/10/20 17:13:39;;;;;;;;;;;19.60;57.30;;;;;;6314524;28;20413;-67
2023/10/20 17:16:43;;;;;;;;;;;19.60;57.30;;;;;;6315025;28;19913;-66
2023/10/20 17:19:43;;;;;;;;;;;19.60;57.30;;;;;;6318902;28;19908;-67
2023/10/20 17:22:44;;;;;;;;;;;19.60;57.30;;;;;;6316344;28;19912;-66
2023/10/20 17:25:45;;;;;;;;;;;19.60;57.30;;;;;;6314577;28;19908;-67
2023/10/20 17:28:47;;;;;;;;;;;19.60;57.30;;;;;;6314523;28;20418;-67
2023/10/20 17:31:48;;;;;;;;;;;19.60;57.30;;;;;;6315390;28;19912;-67
2023/10/20 17:34:48;;;;;;;;;;;19.60;57.30;;;;;;6318155;28;19908;-67
2023/10/20 17:37:49;;;;;;;;;;;19.60;57.30;;;;;;6318778;28;19916;-67
2023/10/20 17:40:51;;;;;;;;;;;19.70;57.20;;;;;;6318473;28;20003;-67
2023/10/20 17:43:52;;;;;;;;;;;19.80;57.10;;;;;;6319059;28;19912;-67
2023/10/20 17:46:53;;;;;;;;;;;19.90;57.20;;;;;;6325595;28;19919;-67
2023/10/20 17:49:54;;;;;;;;;;;19.80;57.00;;;;;;6319699;28;19908;-66
2023/10/20 17:52:54;;;;;;;;;;;19.80;57.10;;;;;;6321620;28;20248;-67
2023/10/20 17:55:56;;;;;;;;;;;19.70;57.20;;;;;;6323799;28;20008;-66
2023/10/20 17:58:56;;;;;;;;;;;19.70;57.30;;;;;;6319507;28;20055;-67
2023/10/20 18:01:57;;;;;;;;;;;19.70;57.50;;;;;;6320025;28;19912;-67
2023/10/20 18:04:58;;;;;;;;;;;19.70;57.40;;;;;;6317537;28;19998;-67